createdAt,value
2016-06-13T00:00:49.172Z,55.45
2016-06-13T00:01:49.144Z,55.55
2016-06-13T00:02:49.146Z,55.26
2016-06-13T00:03:48.962Z,55.35
2016-06-13T00:04:49.091Z,55.35
2016-06-13T00:05:49.172Z,55.74
2016-06-13T00:06:49.143Z,55.55
2016-06-13T00:07:49.036Z,55.74
2016-06-13T00:08:49.009Z,55.55
2016-06-13T00:09:48.996Z,55.55
2016-06-13T00:10:48.968Z,55.55
2016-06-13T00:11:49.190Z,55.55
2016-06-13T00:12:48.928Z,55.55
2016-06-13T00:13:48.914Z,55.65
2016-06-13T00:14:48.902Z,55.55
2016-06-13T00:15:48.874Z,55.35
2016-06-13T00:16:48.862Z,55.45
2016-06-13T00:17:48.834Z,55.45
2016-06-13T00:18:48.820Z,55.74
2016-06-13T00:19:48.793Z,55.65
2016-06-13T00:20:48.780Z,55.65
2016-06-13T00:21:48.814Z,55.55
2016-06-13T00:22:48.739Z,55.45
2016-06-13T00:23:48.712Z,55.55
2016-06-13T00:24:48.714Z,55.35
2016-06-13T00:25:48.748Z,55.55
2016-06-13T00:26:48.829Z,55.93
2016-06-13T00:27:48.645Z,55.93
2016-06-13T00:28:48.461Z,55.65
2016-06-13T00:29:48.604Z,55.93
2016-06-13T00:30:48.576Z,56.03
2016-06-13T00:31:48.564Z,55.93
2016-06-13T00:32:48.536Z,55.83
2016-06-13T00:33:48.523Z,55.83
2016-06-13T00:34:48.495Z,55.81
2016-06-13T00:35:48.482Z,55.83
2016-06-13T00:36:48.454Z,56.03
2016-06-13T00:37:48.442Z,55.83
2016-06-13T00:38:48.429Z,55.93
2016-06-13T00:39:48.402Z,55.74
2016-06-13T00:40:48.466Z,55.74
2016-06-13T00:41:48.360Z,55.65
2016-06-13T00:42:48.348Z,56.03
2016-06-13T00:43:48.320Z,56.03
2016-06-13T00:44:48.306Z,56.03
2016-06-13T00:45:48.279Z,56.03
2016-06-13T00:46:48.265Z,55.83
2016-06-13T00:47:48.254Z,55.83
2016-06-13T00:48:48.226Z,55.74
2016-06-13T00:49:48.229Z,56.22
2016-06-13T00:50:48.185Z,55.93
2016-06-13T00:51:48.172Z,55.83
2016-06-13T00:52:48.159Z,55.81
2016-06-13T00:53:48.117Z,55.93
2016-06-13T00:54:48.103Z,55.93
2016-06-13T00:55:48.091Z,56.03
2016-06-13T00:56:48.079Z,55.81
2016-06-13T00:57:48.050Z,56.32
2016-06-13T00:58:48.022Z,56.32
2016-06-13T00:59:47.853Z,56.32
2016-06-13T01:00:47.997Z,56.32
2016-06-13T01:01:47.984Z,56.32
2016-06-13T01:02:47.940Z,56.32
2016-06-13T01:03:47.928Z,56.22
2016-06-13T01:04:47.932Z,56.22
2016-06-13T01:05:47.903Z,56.22
2016-06-13T01:06:47.874Z,56.32
2016-06-13T01:07:47.847Z,56.22
2016-06-13T01:08:47.833Z,56.22
2016-06-13T01:09:47.821Z,56.32
2016-06-13T01:10:47.933Z,55.74
2016-06-13T01:11:48.031Z,55.93
2016-06-13T01:12:47.815Z,56.03
2016-06-13T01:13:47.583Z,55.83
2016-06-13T01:14:47.790Z,55.83
2016-06-13T01:15:47.543Z,55.93
2016-06-13T01:16:47.687Z,55.93
2016-06-13T01:17:47.658Z,56.22
2016-06-13T01:18:47.646Z,56.13
2016-06-13T01:19:47.617Z,55.93
2016-06-13T01:20:47.605Z,55.93
2016-06-13T01:21:47.578Z,56.03
2016-06-13T01:22:47.565Z,56.22
2016-06-13T01:23:47.551Z,56.32
2016-06-13T01:24:47.523Z,56.32
2016-06-13T01:25:48.120Z,56.29
2016-06-13T01:26:47.483Z,56.22
2016-06-13T01:27:47.455Z,56.32
2016-06-13T01:28:47.442Z,55.74
2016-06-13T01:29:47.414Z,55.74
2016-06-13T01:30:47.401Z,56.32
2016-06-13T01:31:47.389Z,56.22
2016-06-13T01:32:47.361Z,56.22
2016-06-13T01:33:47.349Z,56.13
2016-06-13T01:34:47.320Z,55.83
2016-06-13T01:35:47.307Z,55.93
2016-06-13T01:36:47.280Z,56.03
2016-06-13T01:37:47.267Z,56.03
2016-06-13T01:38:47.239Z,55.93
2016-06-13T01:39:47.225Z,56.13
2016-06-13T01:40:47.526Z,55.81
2016-06-13T01:41:47.201Z,55.93
2016-06-13T01:42:47.157Z,55.62
2016-06-13T01:43:47.145Z,55.62
2016-06-13T01:44:47.133Z,55.55
2016-06-13T01:45:47.119Z,55.52
2016-06-13T01:46:47.091Z,55.52
2016-06-13T01:47:47.078Z,55.74
2016-06-13T01:48:47.050Z,55.33
2016-06-13T01:49:47.039Z,55.33
2016-06-13T01:50:47.009Z,55.52
2016-06-13T01:51:46.997Z,55.23
2016-06-13T01:52:46.968Z,55.26
2016-06-13T01:53:46.941Z,55.26
2016-06-13T01:54:46.990Z,55.33
2016-06-13T01:55:46.916Z,55.16
2016-06-13T01:56:46.888Z,55.42
2016-06-13T01:57:46.875Z,55.23
2016-06-13T01:58:46.862Z,55.26
2016-06-13T01:59:46.834Z,55.33
2016-06-13T02:00:46.807Z,55.23
2016-06-13T02:01:46.778Z,55.23
2016-06-13T02:02:46.765Z,55.26
2016-06-13T02:03:46.753Z,55.13
2016-06-13T02:04:46.740Z,55.33
2016-06-13T02:05:46.713Z,55.07
2016-06-13T02:06:46.700Z,54.75
2016-06-13T02:07:46.671Z,54.75
2016-06-13T02:08:46.659Z,55.13
2016-06-13T02:09:46.631Z,55.04
2016-06-13T02:10:46.931Z,54.75
2016-06-13T02:11:46.871Z,54.75
2016-06-13T02:12:46.577Z,54.84
2016-06-13T02:13:46.565Z,55.07
2016-06-13T02:14:46.537Z,54.84
2016-06-13T02:15:46.524Z,55.13
2016-06-13T02:16:46.496Z,55.13
2016-06-13T02:17:46.483Z,55.13
2016-06-13T02:18:46.456Z,55.23
2016-06-13T02:19:46.443Z,55.13
2016-06-13T02:20:46.415Z,55.04
2016-06-13T02:21:46.402Z,55.13
2016-06-13T02:22:46.390Z,55.23
2016-06-13T02:23:46.361Z,55.13
2016-06-13T02:24:46.349Z,55.13
2016-06-13T02:25:46.320Z,55.13
2016-06-13T02:26:46.308Z,55.04
2016-06-13T02:27:46.280Z,55.23
2016-06-13T02:28:46.268Z,55.04
2016-06-13T02:29:46.239Z,55.16
2016-06-13T02:30:46.227Z,54.87
2016-06-13T02:31:46.199Z,55.13
2016-06-13T02:32:46.186Z,55.16
2016-06-13T02:33:46.173Z,55.13
2016-06-13T02:34:46.145Z,55.26
2016-06-13T02:35:46.117Z,55.13
2016-06-13T02:36:46.104Z,54.84
2016-06-13T02:37:46.092Z,55.13
2016-06-13T02:38:46.064Z,55.16
2016-06-13T02:39:46.051Z,55.07
2016-06-13T02:40:46.023Z,55.13
2016-06-13T02:41:46.385Z,55.26
2016-06-13T02:42:45.998Z,55.26
2016-06-13T02:43:45.970Z,55.35
2016-06-13T02:44:45.957Z,55.26
2016-06-13T02:45:45.929Z,55.35
2016-06-13T02:46:45.901Z,55.35
2016-06-13T02:47:45.888Z,55.26
2016-06-13T02:48:45.875Z,55.26
2016-06-13T02:49:45.847Z,55.35
2016-06-13T02:50:45.835Z,55.26
2016-06-13T02:51:45.807Z,54.87
2016-06-13T02:52:45.794Z,55.35
2016-06-13T02:53:45.766Z,54.87
2016-06-13T02:54:45.754Z,54.68
2016-06-13T02:55:45.725Z,54.87
2016-06-13T02:56:45.712Z,55.26
2016-06-13T02:57:45.701Z,55.16
2016-06-13T02:58:45.672Z,55.16
2016-06-13T02:59:45.644Z,54.87
2016-06-13T03:00:45.646Z,54.97
2016-06-13T03:01:45.619Z,55.07
2016-06-13T03:02:45.591Z,55.07
2016-06-13T03:03:45.578Z,55.35
2016-06-13T03:04:45.550Z,54.68
2016-06-13T03:05:45.537Z,54.68
2016-06-13T03:06:45.525Z,54.97
2016-06-13T03:07:45.497Z,54.97
2016-06-13T03:08:45.484Z,54.97
2016-06-13T03:09:45.455Z,55.55
2016-06-13T03:10:45.444Z,54.97
2016-06-13T03:11:45.447Z,55.16
2016-06-13T03:12:45.402Z,54.68
2016-06-13T03:13:45.375Z,54.68
2016-06-13T03:14:45.362Z,54.77
2016-06-13T03:15:45.333Z,54.77
2016-06-13T03:16:45.321Z,54.68
2016-06-13T03:17:45.293Z,54.68
2016-06-13T03:18:45.280Z,54.39
2016-06-13T03:19:45.268Z,54.29
2016-06-13T03:20:45.240Z,54.19
2016-06-13T03:21:45.227Z,54.19
2016-06-13T03:22:45.199Z,54.77
2016-06-13T03:23:45.186Z,54.49
2016-06-13T03:24:45.002Z,54.29
2016-06-13T03:25:45.145Z,54.19
2016-06-13T03:26:45.186Z,54.77
2016-06-13T03:27:45.183Z,54.39
2016-06-13T03:28:45.179Z,54.39
2016-06-13T03:29:45.207Z,54.1
2016-06-13T03:30:45.235Z,54.58
2016-06-13T03:31:45.233Z,54.19
2016-06-13T03:32:45.218Z,54.58
2016-06-13T03:33:45.221Z,54.39
2016-06-13T03:34:45.222Z,54.29
2016-06-13T03:35:45.209Z,54.29
2016-06-13T03:36:45.189Z,54.49
2016-06-13T03:37:45.182Z,54.39
2016-06-13T03:38:45.191Z,54.39
2016-06-13T03:39:45.144Z,54.39
2016-06-13T03:40:45.152Z,54.29
2016-06-13T03:41:45.823Z,54.39
2016-06-13T03:42:45.104Z,54.29
2016-06-13T03:43:45.078Z,54.39
2016-06-13T03:44:45.068Z,54.1
2016-06-13T03:45:45.057Z,54.19
2016-06-13T03:46:45.046Z,54.19
2016-06-13T03:47:45.020Z,54.49
2016-06-13T03:48:45.008Z,54
2016-06-13T03:49:44.980Z,54.19
2016-06-13T03:50:44.953Z,54.49
2016-06-13T03:51:44.941Z,54.39
2016-06-13T03:52:44.930Z,54.19
2016-06-13T03:53:44.916Z,54.39
2016-06-13T03:54:44.889Z,54.39
2016-06-13T03:55:44.860Z,54.49
2016-06-13T03:56:44.848Z,54.39
2016-06-13T03:57:44.882Z,54.39
2016-06-13T03:58:44.807Z,54.1
2016-06-13T03:59:44.794Z,54.49
2016-06-13T04:00:44.766Z,54.39
2016-06-13T04:01:44.738Z,54.39
2016-06-13T04:02:44.569Z,53.91
2016-06-13T04:03:44.714Z,54.49
2016-06-13T04:04:44.684Z,54.49
2016-06-13T04:05:44.657Z,54.49
2016-06-13T04:06:44.644Z,54.39
2016-06-13T04:07:44.632Z,54.49
2016-06-13T04:08:44.604Z,54.29
2016-06-13T04:09:44.590Z,54.39
2016-06-13T04:10:44.578Z,54.49
2016-06-13T04:11:44.660Z,53.93
2016-06-13T04:12:44.522Z,54.49
2016-06-13T04:13:44.509Z,54.68
2016-06-13T04:14:44.497Z,53.91
2016-06-13T04:15:44.468Z,54.29
2016-06-13T04:16:44.457Z,54.13
2016-06-13T04:17:44.428Z,54.19
2016-06-13T04:18:44.462Z,54.29
2016-06-13T04:19:44.481Z,54.19
2016-06-13T04:20:44.484Z,54.49
2016-06-13T04:21:44.424Z,54.49
2016-06-13T04:22:44.396Z,54.39
2016-06-13T04:23:44.383Z,54.49
2016-06-13T04:24:44.418Z,54.58
2016-06-13T04:25:44.359Z,54.58
2016-06-13T04:26:44.830Z,54.39
2016-06-13T04:27:44.255Z,54.39
2016-06-13T04:28:44.274Z,54.39
2016-06-13T04:29:44.355Z,54.49
2016-06-13T04:30:44.296Z,54.39
2016-06-13T04:31:44.300Z,54.19
2016-06-13T04:32:44.130Z,54.29
2016-06-13T04:33:44.258Z,54.32
2016-06-13T04:34:44.198Z,54.29
2016-06-13T04:35:44.186Z,54.39
2016-06-13T04:36:44.190Z,54.41
2016-06-13T04:37:44.035Z,54.49
2016-06-13T04:38:44.024Z,54.29
2016-06-13T04:39:44.011Z,54.29
2016-06-13T04:40:43.983Z,54.41
2016-06-13T04:41:44.595Z,54.1
2016-06-13T04:42:43.958Z,54.49
2016-06-13T04:43:43.929Z,54.39
2016-06-13T04:44:43.902Z,54.49
2016-06-13T04:45:43.889Z,54.39
2016-06-13T04:46:43.860Z,54.22
2016-06-13T04:47:43.849Z,54.58
2016-06-13T04:48:43.819Z,54.49
2016-06-13T04:49:43.901Z,54.19
2016-06-13T04:50:43.794Z,54.58
2016-06-13T04:51:43.767Z,54.19
2016-06-13T04:52:43.739Z,54.19
2016-06-13T04:53:43.726Z,54.71
2016-06-13T04:54:43.713Z,54.22
2016-06-13T04:55:43.685Z,54.22
2016-06-13T04:56:43.673Z,54.22
2016-06-13T04:57:43.880Z,54.19
2016-06-13T04:58:43.820Z,54.61
2016-06-13T04:59:43.650Z,54.41
2016-06-13T05:00:43.638Z,54.32
2016-06-13T05:01:43.579Z,54.19
2016-06-13T05:02:43.551Z,54.41
2016-06-13T05:03:43.554Z,54.32
2016-06-13T05:04:43.526Z,54.41
2016-06-13T05:05:43.481Z,54.39
2016-06-13T05:06:43.532Z,54.41
2016-06-13T05:07:43.503Z,54.49
2016-06-13T05:08:43.444Z,54.22
2016-06-13T05:09:43.634Z,54.13
2016-06-13T05:10:43.450Z,54.1
2016-06-13T05:11:43.484Z,54.03
2016-06-13T05:12:43.722Z,53.93
2016-06-13T05:13:43.381Z,53.83
2016-06-13T05:14:43.494Z,53.93
2016-06-13T05:15:43.419Z,54.13
2016-06-13T05:16:43.312Z,54.03
2016-06-13T05:17:43.409Z,54.03
2016-06-13T05:18:43.334Z,53.93
2016-06-13T05:19:43.275Z,53.93
2016-06-13T05:20:43.200Z,53.71
2016-06-13T05:21:43.187Z,53.61
2016-06-13T05:22:43.159Z,53.74
2016-06-13T05:23:43.162Z,53.23
2016-06-13T05:24:42.977Z,53.61
2016-06-13T05:25:43.105Z,53.55
2016-06-13T05:26:43.203Z,53.45
2016-06-13T05:27:43.175Z,53.33
2016-06-13T05:28:43.255Z,53.55
2016-06-13T05:29:43.102Z,53.33
2016-06-13T05:30:43.231Z,53.25
2016-06-13T05:31:42.999Z,53.55
2016-06-13T05:32:43.049Z,53.25
2016-06-13T05:33:42.943Z,53.35
2016-06-13T05:34:42.930Z,53.35
2016-06-13T05:35:42.902Z,53.42
2016-06-13T05:36:42.889Z,53.55
2016-06-13T05:37:42.861Z,53.25
2016-06-13T05:38:42.848Z,53.16
2016-06-13T05:39:42.836Z,52.77
2016-06-13T05:40:42.870Z,52.84
2016-06-13T05:41:42.795Z,52.77
2016-06-13T05:42:42.627Z,52.77
2016-06-13T05:43:42.755Z,52.87
2016-06-13T05:44:42.727Z,52.67
2016-06-13T05:45:42.714Z,52.67
2016-06-13T05:46:42.733Z,52.65
2016-06-13T05:47:42.673Z,52.87
2016-06-13T05:48:42.645Z,52.67
2016-06-13T05:49:42.648Z,52.77
2016-06-13T05:50:42.620Z,52.77
2016-06-13T05:51:42.592Z,53.06
2016-06-13T05:52:42.579Z,52.77
2016-06-13T05:53:42.551Z,52.97
2016-06-13T05:54:42.414Z,52.77
2016-06-13T05:55:42.651Z,52.67
2016-06-13T05:56:42.575Z,52.77
2016-06-13T05:57:42.470Z,52.58
2016-06-13T05:58:42.457Z,52.77
2016-06-13T05:59:42.445Z,52.77
2016-06-13T06:00:42.416Z,52.87
2016-06-13T06:01:42.403Z,52.77
2016-06-13T06:02:42.422Z,52.77
2016-06-13T06:03:42.363Z,52.87
2016-06-13T06:04:42.335Z,52.67
2016-06-13T06:05:42.338Z,52.67
2016-06-13T06:06:42.404Z,52.77
2016-06-13T06:07:42.297Z,52.58
2016-06-13T06:08:42.253Z,52.67
2016-06-13T06:09:42.397Z,52.39
2016-06-13T06:10:42.338Z,52.29
2016-06-13T06:11:42.232Z,52.67
2016-06-13T06:12:42.187Z,52.29
2016-06-13T06:13:42.316Z,52.39
2016-06-13T06:14:42.147Z,52.48
2016-06-13T06:15:42.119Z,52.48
2016-06-13T06:16:42.122Z,52.67
2016-06-13T06:17:42.328Z,52.67
2016-06-13T06:18:41.925Z,52.67
2016-06-13T06:19:42.053Z,52.67
2016-06-13T06:20:42.087Z,52.67
2016-06-13T06:21:42.199Z,52.67
2016-06-13T06:22:42.093Z,52.58
2016-06-13T06:23:41.972Z,52.67
2016-06-13T06:24:41.959Z,52.67
2016-06-13T06:25:41.946Z,52.48
2016-06-13T06:26:41.918Z,52.29
2016-06-13T06:27:42.046Z,52.58
2016-06-13T06:28:41.877Z,52.67
2016-06-13T06:29:41.880Z,52.19
2016-06-13T06:30:41.852Z,52.29
2016-06-13T06:31:41.949Z,52.39
2016-06-13T06:32:42.014Z,52.39
2016-06-13T06:33:41.924Z,52.29
2016-06-13T06:34:41.865Z,52.29
2016-06-13T06:35:41.634Z,52.29
2016-06-13T06:36:41.559Z,52.09
2016-06-13T06:37:41.795Z,52.29
2016-06-13T06:38:41.689Z,52.29
2016-06-13T06:39:41.661Z,52.48
2016-06-13T06:40:41.633Z,52.19
2016-06-13T06:41:41.636Z,52.58
2016-06-13T06:42:42.124Z,52.58
2016-06-13T06:43:41.673Z,52.19
2016-06-13T06:44:41.567Z,52.67
2016-06-13T06:45:41.554Z,52.58
2016-06-13T06:46:41.526Z,52.77
2016-06-13T06:47:41.765Z,52.77
2016-06-13T06:48:41.517Z,52.77
2016-06-13T06:49:41.458Z,52.77
2016-06-13T06:50:41.444Z,52.97
2016-06-13T06:51:41.417Z,53.45
2016-06-13T06:52:41.405Z,53.45
2016-06-13T06:53:41.408Z,53.45
2016-06-13T06:54:41.364Z,53.25
2016-06-13T06:55:41.631Z,53.35
2016-06-13T06:56:41.338Z,53.42
2016-06-13T06:57:41.388Z,53.42
2016-06-13T06:58:41.282Z,53.71
2016-06-13T06:59:41.269Z,53.52
2016-06-13T07:00:41.147Z,53.74
2016-06-13T07:01:41.229Z,53.64
2016-06-13T07:02:41.278Z,53.81
2016-06-13T07:03:41.313Z,53.42
2016-06-13T07:04:41.176Z,53.52
2016-06-13T07:05:41.148Z,53.71
2016-06-13T07:06:41.135Z,53.61
2016-06-13T07:07:41.107Z,53.42
2016-06-13T07:08:41.250Z,53.61
2016-06-13T07:09:41.066Z,53.52
2016-06-13T07:10:41.194Z,54
2016-06-13T07:11:41.259Z,53.81
2016-06-13T07:12:41.200Z,53.61
2016-06-13T07:13:41.000Z,53.81
2016-06-13T07:14:41.082Z,54.1
2016-06-13T07:15:40.959Z,53.91
2016-06-13T07:16:41.150Z,53.91
2016-06-13T07:17:41.138Z,53.91
2016-06-13T07:18:41.031Z,54
2016-06-13T07:19:41.050Z,54.1
2016-06-13T07:20:40.927Z,54
2016-06-13T07:21:40.915Z,53.91
2016-06-13T07:22:40.934Z,54
2016-06-13T07:23:40.906Z,54
2016-06-13T07:24:40.612Z,54.39
2016-06-13T07:25:40.788Z,54.19
2016-06-13T07:26:40.868Z,54.29
2016-06-13T07:27:40.855Z,54.29
2016-06-13T07:28:40.703Z,54.39
2016-06-13T07:29:40.737Z,54.39
2016-06-13T07:30:40.724Z,54.29
2016-06-13T07:31:40.805Z,54.29
2016-06-13T07:32:40.620Z,54.39
2016-06-13T07:33:40.687Z,54.19
2016-06-13T07:34:40.626Z,54.39
2016-06-13T07:35:40.662Z,54.68
2016-06-13T07:36:40.555Z,54.87
2016-06-13T07:37:40.621Z,54.68
2016-06-13T07:38:40.592Z,55.26
2016-06-13T07:39:40.470Z,54.97
2016-06-13T07:40:40.536Z,54.97
2016-06-13T07:41:40.446Z,55.07
2016-06-13T07:42:40.417Z,54.77
2016-06-13T07:43:40.390Z,55.07
2016-06-13T07:44:40.502Z,55.35
2016-06-13T07:45:40.363Z,55.26
2016-06-13T07:46:40.429Z,55.35
2016-06-13T07:47:40.511Z,55.07
2016-06-13T07:48:40.420Z,55.35
2016-06-13T07:49:40.533Z,55.55
2016-06-13T07:50:40.286Z,55.55
2016-06-13T07:51:40.304Z,55.74
2016-06-13T07:52:40.339Z,55.83
2016-06-13T07:53:40.280Z,56.03
2016-06-13T07:54:40.188Z,55.93
2016-06-13T07:55:40.238Z,56.51
2016-06-13T07:56:40.195Z,56.22
2016-06-13T07:57:40.292Z,56.22
2016-06-13T07:58:40.122Z,56.51
2016-06-13T07:59:40.126Z,56.61
2016-06-13T08:00:40.067Z,56.51
2016-06-13T08:01:40.195Z,56.41
2016-06-13T08:02:40.057Z,56.13
2016-06-13T08:03:40.138Z,56.32
2016-06-13T08:04:39.985Z,56.32
2016-06-13T08:05:39.972Z,56.03
2016-06-13T08:06:40.053Z,56.32
2016-06-13T08:07:40.041Z,56.03
2016-06-13T08:08:40.091Z,56.22
2016-06-13T08:09:40.017Z,56.22
2016-06-13T08:10:39.956Z,56.32
2016-06-13T08:11:39.959Z,55.93
2016-06-13T08:12:39.697Z,56.22
2016-06-13T08:13:39.810Z,55.93
2016-06-13T08:14:39.937Z,55.83
2016-06-13T08:15:39.941Z,55.65
2016-06-13T08:16:39.880Z,55.45
2016-06-13T08:17:39.744Z,55.55
2016-06-13T08:18:39.794Z,55.55
2016-06-13T08:19:39.828Z,55.26
2016-06-13T08:20:39.518Z,55.35
2016-06-13T08:21:39.663Z,55.55
2016-06-13T08:22:39.821Z,55.65
2016-06-13T08:23:39.622Z,55.35
2016-06-13T08:24:39.671Z,55.35
2016-06-13T08:25:39.580Z,55.55
2016-06-13T08:26:39.615Z,55.65
2016-06-13T08:27:39.618Z,55.55
2016-06-13T08:28:39.386Z,55.65
2016-06-13T08:29:39.390Z,55.55
2016-06-13T08:30:39.471Z,55.55
2016-06-13T08:31:39.459Z,54.87
2016-06-13T08:32:39.493Z,55.65
2016-06-13T08:33:39.418Z,55.65
2016-06-13T08:34:39.593Z,55.16
2016-06-13T08:35:39.549Z,54.87
2016-06-13T08:36:39.396Z,54.97
2016-06-13T08:37:42.618Z,55.35
2016-06-13T08:38:39.402Z,55.35
2016-06-13T08:39:39.373Z,55.55
2016-06-13T08:40:39.315Z,55.55
2016-06-13T08:41:39.333Z,55.65
2016-06-13T08:42:39.273Z,55.65
2016-06-13T08:43:39.246Z,55.65
2016-06-13T08:44:39.202Z,55.65
2016-06-13T08:45:39.189Z,55.83
2016-06-13T08:46:39.161Z,55.55
2016-06-13T08:47:39.304Z,55.55
2016-06-13T08:48:39.151Z,55.45
2016-06-13T08:49:39.108Z,55.55
2016-06-13T08:50:39.095Z,55.55
2016-06-13T08:51:39.270Z,55.55
2016-06-13T08:52:39.242Z,55.65
2016-06-13T08:53:39.027Z,55.65
2016-06-13T08:54:39.107Z,56.03
2016-06-13T08:55:39.173Z,55.93
2016-06-13T08:56:38.957Z,56.03
2016-06-13T08:57:38.945Z,56.22
2016-06-13T08:58:38.948Z,56.22
2016-06-13T08:59:38.951Z,56.32
2016-06-13T09:00:38.954Z,56.22
2016-06-13T09:01:39.067Z,56.41
2016-06-13T09:02:39.085Z,56.61
2016-06-13T09:03:38.885Z,56.61
2016-06-13T09:04:38.825Z,56.41
2016-06-13T09:05:38.845Z,56.61
2016-06-13T09:06:38.816Z,57.09
2016-06-13T09:07:38.820Z,56.99
2016-06-13T09:08:38.807Z,56.8
2016-06-13T09:09:38.732Z,56.61
2016-06-13T09:10:38.704Z,56.41
2016-06-13T09:11:38.799Z,56.22
2016-06-13T09:12:39.272Z,56.41
2016-06-13T09:13:38.650Z,56.32
2016-06-13T09:14:38.622Z,56.22
2016-06-13T09:15:38.609Z,56.22
2016-06-13T09:16:38.738Z,56.22
2016-06-13T09:17:38.678Z,56.32
2016-06-13T09:18:38.540Z,56.32
2016-06-13T09:19:38.513Z,56.03
2016-06-13T09:20:38.500Z,56.32
2016-06-13T09:21:38.549Z,56.41
2016-06-13T09:22:38.459Z,56.51
2016-06-13T09:23:38.447Z,56.8
2016-06-13T09:24:38.417Z,56.8
2016-06-13T09:25:38.437Z,56.9
2016-06-13T09:26:38.440Z,56.8
2016-06-13T09:27:38.365Z,57.19
2016-06-13T09:28:38.337Z,57.19
2016-06-13T09:29:38.325Z,57.38
2016-06-13T09:30:38.311Z,57.29
2016-06-13T09:31:38.314Z,57.29
2016-06-13T09:32:38.397Z,57.48
2016-06-13T09:33:38.400Z,56.99
2016-06-13T09:34:38.231Z,56.8
2016-06-13T09:35:38.265Z,56.71
2016-06-13T09:36:38.189Z,56.9
2016-06-13T09:37:38.162Z,57.09
2016-06-13T09:38:38.180Z,56.61
2016-06-13T09:39:38.355Z,56.41
2016-06-13T09:40:38.296Z,56.63
2016-06-13T09:41:38.205Z,56.32
2016-06-13T09:42:38.067Z,56.32
2016-06-13T09:43:38.071Z,56.13
2016-06-13T09:44:38.121Z,56.03
2016-06-13T09:45:38.045Z,56.45
2016-06-13T09:46:38.001Z,55.93
2016-06-13T09:47:38.021Z,55.93
2016-06-13T09:48:38.039Z,55.83
2016-06-13T09:49:38.104Z,55.93
2016-06-13T09:50:37.998Z,55.35
2016-06-13T09:51:37.970Z,55.65
2016-06-13T09:52:37.879Z,55.45
2016-06-13T09:53:38.054Z,54.97
2016-06-13T09:54:37.917Z,55.16
2016-06-13T09:55:37.811Z,55.16
2016-06-13T09:56:37.829Z,54.97
2016-06-13T09:57:37.879Z,54.49
2016-06-13T09:58:37.930Z,54.58
2016-06-13T09:59:37.572Z,54.49
2016-06-13T10:00:37.732Z,54
2016-06-13T10:01:37.719Z,54.1
2016-06-13T10:02:37.754Z,53.91
2016-06-13T10:03:37.757Z,53.61
2016-06-13T10:04:37.853Z,53.42
2016-06-13T10:05:37.841Z,53.52
2016-06-13T10:06:37.735Z,53.45
2016-06-13T10:07:37.863Z,53.42
2016-06-13T10:08:37.694Z,53.33
2016-06-13T10:09:37.761Z,53.42
2016-06-13T10:10:37.778Z,53.25
2016-06-13T10:11:37.531Z,53.42
2016-06-13T10:12:37.551Z,52.75
2016-06-13T10:13:37.648Z,52.67
2016-06-13T10:14:37.462Z,52.77
2016-06-13T10:15:40.574Z,52.77
2016-06-13T10:16:37.516Z,52.48
2016-06-13T10:17:37.394Z,52.36
2016-06-13T10:18:37.397Z,52.17
2016-06-13T10:19:37.383Z,51.78
2016-06-13T10:20:37.340Z,51.78
2016-06-13T10:21:37.328Z,51.68
2016-06-13T10:22:37.300Z,51.78
2016-06-13T10:23:37.287Z,51.97
2016-06-13T10:24:37.260Z,52.55
2016-06-13T10:25:37.246Z,52.26
2016-06-13T10:26:37.218Z,52.36
2016-06-13T10:27:37.299Z,52.36
2016-06-13T10:28:37.647Z,52.26
2016-06-13T10:29:37.009Z,52.17
2016-06-13T10:30:37.183Z,52.65
2016-06-13T10:31:37.124Z,52.45
2016-06-13T10:32:37.127Z,52.36
2016-06-13T10:33:37.240Z,52.55
2016-06-13T10:34:37.118Z,52.19
2016-06-13T10:35:37.091Z,52.39
2016-06-13T10:36:37.030Z,52.26
2016-06-13T10:37:37.127Z,52.36
2016-06-13T10:38:37.005Z,52.58
2016-06-13T10:39:37.242Z,52
2016-06-13T10:40:37.183Z,52
2016-06-13T10:41:37.218Z,52.17
2016-06-13T10:42:37.190Z,52.48
2016-06-13T10:43:37.818Z,52.36
2016-06-13T10:44:37.132Z,52.17
2016-06-13T10:45:37.105Z,52.77
2016-06-13T10:46:37.061Z,52.48
2016-06-13T10:47:37.048Z,52.09
2016-06-13T10:48:37.036Z,51.71
2016-06-13T10:49:37.054Z,52.19
2016-06-13T10:50:36.948Z,51.61
2016-06-13T10:51:40.014Z,52
2016-06-13T10:52:36.985Z,51.32
2016-06-13T11:02:18.298Z,50.67
2016-06-13T11:03:18.394Z,50.09
2016-06-13T11:04:18.210Z,50.26
2016-06-13T11:05:18.197Z,50.28
2016-06-13T11:06:18.186Z,50.48
2016-06-13T11:07:18.173Z,50.57
2016-06-13T11:08:18.145Z,50.18
2016-06-13T11:09:18.132Z,50.09
2016-06-13T11:10:18.119Z,49.51
2016-06-13T11:11:18.091Z,49.6
2016-06-13T11:12:18.063Z,49.22
2016-06-13T11:13:18.910Z,49.22
2016-06-13T11:14:18.053Z,49.32
2016-06-13T11:15:17.853Z,49.32
2016-06-13T11:16:18.122Z,48.83
2016-06-13T11:17:17.984Z,48.74
2016-06-13T11:18:17.956Z,48.44
2016-06-13T11:19:17.928Z,47.86
2016-06-13T11:20:17.932Z,47.86
2016-06-13T11:21:17.747Z,47.67
2016-06-13T11:22:20.922Z,47.38
2016-06-13T11:23:17.955Z,47.58
2016-06-13T11:24:17.850Z,47.38
2016-06-13T11:25:17.822Z,47.28
2016-06-13T11:26:17.934Z,47.28
2016-06-13T11:27:17.828Z,46.7
2016-06-13T11:28:18.206Z,46.63
2016-06-13T11:29:17.959Z,46.12
2016-06-13T11:30:22.071Z,46.51
2016-06-13T11:31:17.871Z,46.25
2016-06-13T11:32:17.890Z,46.42
2016-06-13T11:33:17.877Z,46.44
2016-06-13T11:34:17.647Z,46.03
2016-06-13T11:35:17.837Z,46.25
2016-06-13T11:36:17.856Z,46.32
2016-06-13T11:37:17.734Z,46.25
2016-06-13T11:38:17.596Z,46.25
2016-06-13T11:39:17.630Z,46.32
2016-06-13T11:40:17.727Z,46.03
2016-06-13T11:41:17.527Z,46.15
2016-06-13T11:42:17.546Z,46.22
2016-06-13T11:43:17.564Z,46.05
2016-06-13T11:44:17.865Z,46.03
2016-06-13T11:45:17.509Z,46.05
2016-06-13T11:46:17.433Z,46.12
2016-06-13T11:47:17.529Z,45.95
2016-06-13T11:48:17.423Z,45.83
2016-06-13T11:49:17.238Z,46.15
2016-06-13T11:50:17.476Z,46.15
2016-06-13T11:51:17.339Z,46.15
2016-06-13T11:52:17.311Z,45.66
2016-06-13T11:53:17.392Z,45.76
2016-06-13T11:54:17.333Z,45.66
2016-06-13T11:55:17.382Z,45.28
2016-06-13T11:56:17.339Z,45.57
2016-06-13T11:57:17.233Z,45.28
2016-06-13T11:58:17.782Z,44.98
2016-06-13T11:59:17.863Z,44.7
2016-06-13T12:00:17.335Z,44.6
2016-06-13T12:01:17.151Z,45.28
2016-06-13T12:02:17.123Z,45.28
2016-06-13T12:03:17.156Z,45.18
2016-06-13T12:04:17.223Z,45.76
2016-06-13T12:05:17.303Z,45.86
2016-06-13T12:06:17.322Z,45.57
2016-06-13T12:07:17.232Z,45.95
2016-06-13T12:08:17.047Z,46.15
2016-06-13T12:09:17.113Z,46.25
2016-06-13T12:10:16.975Z,46.34
2016-06-13T12:11:16.947Z,46.05
2016-06-13T12:12:17.044Z,46.25
2016-06-13T12:13:18.344Z,46.05
2016-06-13T12:14:16.909Z,46.15
2016-06-13T12:15:16.882Z,45.95
2016-06-13T12:16:17.071Z,45.95
2016-06-13T12:17:16.934Z,45.95
2016-06-13T12:18:17.063Z,45.76
2016-06-13T12:19:17.019Z,45.08
2016-06-13T12:20:16.897Z,44.79
2016-06-13T12:21:16.962Z,45.18
2016-06-13T12:22:16.840Z,44.98
2016-06-13T12:23:16.937Z,45.76
2016-06-13T12:24:16.753Z,45.76
2016-06-13T12:25:16.710Z,46.05
2016-06-13T12:26:16.696Z,46.05
2016-06-13T12:27:16.699Z,45.98
2016-06-13T12:28:16.688Z,46.34
2016-06-13T12:29:16.753Z,46.25
2016-06-13T12:30:16.772Z,46.08
2016-06-13T12:31:16.727Z,45.98
2016-06-13T12:32:16.653Z,45.98
2016-06-13T12:33:16.593Z,46.26
2016-06-13T12:34:16.684Z,46.17
2016-06-13T12:35:19.822Z,46.08
2016-06-13T12:36:16.865Z,46.05
2016-06-13T12:37:16.862Z,45.4
2016-06-13T12:38:16.728Z,45.59
2016-06-13T12:39:16.809Z,45.59
2016-06-13T12:40:16.796Z,45.59
2016-06-13T12:41:16.657Z,45.68
2016-06-13T12:42:16.504Z,46.17
2016-06-13T12:43:16.670Z,46.08
2016-06-13T12:44:16.725Z,46.26
2016-06-13T12:45:16.655Z,45.59
2016-06-13T12:46:16.725Z,45.78
2016-06-13T12:47:16.702Z,45.78
2016-06-13T12:48:16.661Z,46.17
2016-06-13T12:49:16.666Z,46.17
2016-06-13T12:50:16.702Z,45.88
2016-06-13T12:51:16.723Z,45.78
2016-06-13T12:52:16.603Z,46.26
2016-06-13T12:53:16.576Z,46.17
2016-06-13T12:54:16.658Z,46.26
2016-06-13T12:55:16.615Z,45.98
2016-06-13T12:56:25.290Z,46.05
2016-06-13T12:57:16.700Z,46.25
2016-06-13T12:58:16.454Z,46.15
2016-06-13T12:59:16.582Z,46.66
2016-06-13T13:00:19.555Z,46.34
2016-06-13T13:01:16.370Z,46.53
2016-06-13T13:02:16.374Z,46.36
2016-06-13T13:03:16.517Z,46.05